Time;durP1;ratioP1;P1;durP2;ratioP2;P2;SDS_P1;SDS_P2;PMS_P1;PMS_P2;Temp;Humidity;BMP_temperature;BMP_pressure;BME280_temperature;BME280_humidity;BME280_pressure;Samples;Min_cycle;Max_cycle;Signal;HPM_P1;HPM_P2
2022/09/02 00:04:27;;;;;;;7.63;7.13;;;;;15.40;98958.00;;;;16647387;28;20245;-48
2022/09/02 00:12:31;;;;;;;8.80;7.90;;;;;15.40;98953.00;;;;16607749;28;20219;-47
2022/09/02 00:20:34;;;;;;;7.37;6.87;;;;;15.30;98947.00;;;;16604586;28;20689;-47
2022/09/02 00:28:38;;;;;;;8.13;7.53;;;;;15.20;98937.00;;;;16650509;28;20308;-47
2022/09/02 00:36:43;;;;;;;7.60;6.90;;;;;15.10;98938.00;;;;16646258;28;20236;-48
2022/09/02 00:44:47;;;;;;;7.57;6.93;;;;;15.20;98934.00;;;;16640476;28;20237;-48
2022/09/02 00:52:52;;;;;;;8.17;7.60;;;;;15.20;98922.00;;;;16657188;28;20267;-49
2022/09/02 01:00:59;;;;;;;8.90;7.20;;;;;14.90;98925.00;;;;16647449;28;20300;-47
2022/09/02 01:09:07;;;;;;;6.87;6.37;;;;;14.90;98926.00;;;;16637798;28;20657;-48
2022/09/02 01:17:11;;;;;;;8.07;7.47;;;;;15.00;98923.00;;;;16656267;28;20208;-48
2022/09/02 01:25:18;;;;;;;7.23;6.73;;;;;15.50;98920.00;;;;16655714;28;20242;-48
2022/09/02 01:33:23;;;;;;;7.10;6.40;;;;;15.00;98917.00;;;;16624322;28;20221;-48
2022/09/02 01:41:26;;;;;;;7.53;6.87;;;;;14.70;98923.00;;;;16654540;28;20298;-47
2022/09/02 01:49:29;;;;;;;7.30;6.70;;;;;14.60;98921.00;;;;16653613;28;20277;-48
2022/09/02 01:57:33;;;;;;;7.17;6.47;;;;;14.80;98909.00;;;;16634590;28;20232;-47
2022/09/02 02:05:36;;;;;;;8.23;7.30;;;;;14.90;98914.00;;;;16619022;28;20229;-48
2022/09/02 02:13:40;;;;;;;7.13;6.63;;;;;14.50;98919.00;;;;16610080;28;20220;-48
2022/09/02 02:21:43;;;;;;;11.70;6.73;;;;;14.30;98912.00;;;;16589100;28;20229;-47
2022/09/02 02:29:48;;;;;;;7.30;6.40;;;;;14.60;98909.00;;;;16568288;28;20297;-48
2022/09/02 02:37:52;;;;;;;7.20;6.50;;;;;14.60;98904.00;;;;16583773;28;20224;-48
2022/09/02 02:45:56;;;;;;;6.47;5.87;;;;;14.30;98901.00;;;;16624742;28;20248;-48
2022/09/02 02:54:00;;;;;;;7.00;6.40;;;;;14.30;98899.00;;;;16650707;28;20217;-48
2022/09/02 03:02:06;;;;;;;7.50;6.50;;;;;14.20;98891.00;;;;16632811;28;20249;-48
2022/09/02 03:10:11;;;;;;;7.50;5.93;;;;;14.40;98896.00;;;;16625203;28;20654;-48
2022/09/02 03:18:18;;;;;;;5.83;5.40;;;;;14.10;98891.00;;;;16632169;28;20225;-48
2022/09/02 03:26:24;;;;;;;6.30;5.70;;;;;14.30;98897.00;;;;16630954;28;20232;-48
2022/09/02 03:34:29;;;;;;;6.23;5.80;;;;;14.20;98888.00;;;;16633033;28;20213;-48
2022/09/02 03:42:32;;;;;;;12.37;7.13;;;;;13.90;98894.00;;;;16629017;28;20232;-48
2022/09/02 03:50:38;;;;;;;7.67;5.90;;;;;13.80;98894.00;;;;16630536;28;20201;-47
2022/09/02 03:58:42;;;;;;;6.43;5.90;;;;;13.70;98893.00;;;;16623325;28;20281;-47
2022/09/02 04:06:46;;;;;;;7.53;6.33;;;;;13.80;98896.00;;;;16670499;22;20235;-47
2022/09/02 04:14:49;;;;;;;6.87;6.27;;;;;13.70;98896.00;;;;16697190;28;20224;-47
2022/09/02 04:22:54;;;;;;;7.10;6.40;;;;;13.60;98898.00;;;;16620037;28;20232;-47
2022/09/02 04:30:57;;;;;;;7.23;6.63;;;;;13.70;98897.00;;;;16652764;28;20636;-47
2022/09/02 04:39:02;;;;;;;6.53;6.13;;;;;13.60;98881.00;;;;16646007;28;20323;-47
2022/09/02 04:47:07;;;;;;;8.40;6.73;;;;;13.50;98885.00;;;;16648465;28;20255;-47
2022/09/02 04:55:11;;;;;;;7.53;6.93;;;;;13.60;98884.00;;;;16658210;28;20236;-47
2022/09/02 05:03:14;;;;;;;7.80;6.23;;;;;13.70;98881.00;;;;16656431;28;20227;-47
2022/09/02 05:11:22;;;;;;;8.03;6.03;;;;;13.80;98892.00;;;;16636611;28;20224;-47
2022/09/02 05:19:25;;;;;;;7.60;6.00;;;;;13.90;98891.00;;;;16648650;28;20228;-47
2022/09/02 05:27:29;;;;;;;7.33;6.77;;;;;13.90;98885.00;;;;16657636;28;20219;-47
2022/09/02 05:35:33;;;;;;;6.80;6.20;;;;;14.00;98887.00;;;;16654827;28;20565;-47
2022/09/02 05:43:37;;;;;;;6.80;5.93;;;;;14.40;98878.00;;;;16640510;28;20225;-47
2022/09/02 05:51:43;;;;;;;5.87;5.40;;;;;14.60;98876.00;;;;16655936;28;20193;-47
2022/09/02 05:59:54;;;;;;;5.70;5.10;;;;;14.90;98871.00;;;;16656879;28;20303;-47
2022/09/02 06:07:58;;;;;;;5.90;5.50;;;;;15.30;98869.00;;;;16639592;28;20233;-47
2022/09/02 06:16:02;;;;;;;5.53;5.03;;;;;15.90;98866.00;;;;16636144;28;20218;-47
2022/09/02 06:24:07;;;;;;;5.80;5.30;;;;;16.50;98860.00;;;;16618968;28;20227;-47
2022/09/02 06:32:12;;;;;;;6.37;5.77;;;;;17.20;98854.00;;;;16650717;28;20194;-47
2022/09/02 06:40:16;;;;;;;8.10;7.40;;;;;17.90;98846.00;;;;16637507;28;20206;-47
2022/09/02 06:48:21;;;;;;;7.33;6.63;;;;;18.70;98838.00;;;;16651418;28;20250;-47
2022/09/02 06:56:24;;;;;;;10.60;6.67;;;;;20.00;98832.00;;;;16651432;28;20212;-47
2022/09/02 07:12:51;;;;;;;5.20;4.70;;;;;20.50;98829.00;;;;16618936;28;20215;-47
2022/09/02 07:20:56;;;;;;;4.83;4.10;;;;;20.80;98818.00;;;;16628497;28;20214;-48
2022/09/02 07:28:58;;;;;;;5.37;3.90;;;;;20.40;98804.00;;;;16632942;28;20758;-47
2022/09/02 07:37:04;;;;;;;4.33;3.93;;;;;21.10;98802.00;;;;16623699;28;20225;-47
2022/09/02 07:45:08;;;;;;;4.90;3.83;;;;;21.20;98792.00;;;;16616953;28;20460;-48
2022/09/02 07:53:15;;;;;;;3.43;2.80;;;;;21.40;98807.00;;;;16624603;28;20234;-47
2022/09/02 08:01:21;;;;;;;3.77;3.40;;;;;21.30;98801.00;;;;16638027;28;20778;-47
2022/09/02 08:09:25;;;;;;;4.70;3.70;;;;;21.60;98806.00;;;;16620976;28;20239;-47
2022/09/02 08:17:28;;;;;;;3.00;2.67;;;;;21.60;98800.00;;;;16620166;28;20319;-47
2022/09/02 08:25:32;;;;;;;3.50;3.20;;;;;22.20;98804.00;;;;16640240;28;20227;-47
2022/09/02 08:33:34;;;;;;;2.50;2.30;;;;;22.30;98811.00;;;;16629084;28;20229;-47
2022/09/02 08:41:45;;;;;;;3.50;2.80;;;;;22.20;98808.00;;;;16625998;28;20219;-48
2022/09/02 08:49:51;;;;;;;2.37;2.13;;;;;22.30;98793.00;;;;16626108;28;20218;-47
2022/09/02 08:57:56;;;;;;;2.27;1.97;;;;;22.40;98785.00;;;;16627748;28;20730;-47
2022/09/02 09:06:04;;;;;;;2.40;2.10;;;;;22.70;98792.00;;;;16623651;28;20316;-48
2022/09/02 09:14:19;;;;;;;7.27;2.83;;;;;23.30;98774.00;;;;16632470;28;20340;-47
2022/09/02 09:22:24;;;;;;;4.40;2.07;;;;;23.40;98763.00;;;;16603106;28;20763;-47
2022/09/02 09:30:28;;;;;;;2.67;1.60;;;;;23.10;98766.00;;;;16608806;28;20254;-48
2022/09/02 09:38:33;;;;;;;6.63;2.90;;;;;23.60;98765.00;;;;16591549;28;20215;-48
2022/09/02 09:46:39;;;;;;;3.97;2.13;;;;;24.50;98751.00;;;;16597529;28;20247;-47
2022/09/02 09:54:42;;;;;;;1.60;1.50;;;;;25.00;98750.00;;;;16590517;28;20214;-47
2022/09/02 10:02:50;;;;;;;2.73;2.50;;;;;25.20;98741.00;;;;16626885;22;20691;-76
2022/09/02 10:11:00;;;;;;;2.50;1.90;;;;;25.30;98731.00;;;;16555910;28;20228;-76
2022/09/02 10:19:11;;;;;;;3.37;1.60;;;;;25.30;98721.00;;;;16478077;28;20272;-76
2022/09/02 10:27:17;;;;;;;3.00;1.70;;;;;25.80;98728.00;;;;16542149;28;20244;-76
2022/09/02 10:35:25;;;;;;;1.70;1.60;;;;;26.50;98721.00;;;;16530000;28;20735;-76
2022/09/02 10:43:46;;;;;;;1.63;1.53;;;;;26.50;98711.00;;;;16564074;28;20223;-76
2022/09/02 10:51:56;;;;;;;1.80;1.60;;;;;27.00;98703.00;;;;16585778;28;20313;-76
2022/09/02 11:00:04;;;;;;;2.33;1.80;;;;;26.70;98686.00;;;;16569234;28;20302;-77
2022/09/02 11:08:12;;;;;;;3.83;1.87;;;;;27.50;98671.00;;;;16545457;28;20304;-76
2022/09/02 11:16:18;;;;;;;2.57;1.73;;;;;27.00;98665.00;;;;16520608;28;21292;-76
2022/09/02 11:24:29;;;;;;;3.13;1.57;;;;;26.60;98678.00;;;;16519995;28;20742;-76
2022/09/02 11:32:38;;;;;;;2.40;1.67;;;;;26.80;98669.00;;;;16521580;28;20316;-76
2022/09/02 11:40:55;;;;;;;2.37;2.17;;;;;27.90;98657.00;;;;16548824;28;20255;-76
2022/09/02 11:49:17;;;;;;;1.60;1.50;;;;;27.90;98659.00;;;;16584693;28;20219;-77
2022/09/02 11:57:24;;;;;;;5.23;1.93;;;;;28.60;98664.00;;;;16563472;28;20262;-76
2022/09/02 12:05:51;;;;;;;2.93;1.40;;;;;29.30;98645.00;;;;16530340;28;20228;-77
2022/09/02 12:13:55;;;;;;;2.00;1.60;;;;;29.00;98651.00;;;;16550492;28;20223;-77
2022/09/02 12:22:27;;;;;;;1.57;1.47;;;;;30.40;98654.00;;;;16594969;28;20265;-77
2022/09/02 12:31:07;;;;;;;2.67;1.67;;;;;29.20;98645.00;;;;16577570;28;20230;-77
2022/09/02 12:39:43;;;;;;;1.93;1.47;;;;;30.00;98642.00;;;;16578381;28;20278;-76
2022/09/02 12:47:57;;;;;;;2.00;1.70;;;;;31.30;98630.00;;;;16593428;28;20219;-77
2022/09/02 12:56:03;;;;;;;1.77;1.67;;;;;31.80;98626.00;;;;16591064;28;20218;-77
2022/09/02 13:04:26;;;;;;;2.53;1.97;;;;;31.70;98619.00;;;;16591835;28;20242;-77
2022/09/02 13:12:51;;;;;;;2.67;1.90;;;;;30.60;98625.00;;;;16545971;28;20222;-76
2022/09/02 13:21:23;;;;;;;4.00;1.87;;;;;32.90;98604.00;;;;16586314;28;20694;-78
2022/09/02 13:29:51;;;;;;;1.40;1.30;;;;;32.10;98597.00;;;;16590786;28;20307;-77
2022/09/02 13:37:59;;;;;;;2.27;1.93;;;;;32.10;98580.00;;;;16577756;28;20279;-77
2022/09/02 13:46:04;;;;;;;2.40;1.80;;;;;32.10;98571.00;;;;16586937;28;20277;-77
2022/09/02 13:54:08;;;;;;;4.40;2.50;;;;;32.30;98560.00;;;;16538907;28;20224;-77
2022/09/02 14:02:23;;;;;;;2.20;1.80;;;;;33.30;98559.00;;;;16524263;28;20681;-77
2022/09/02 14:10:28;;;;;;;1.77;1.63;;;;;32.80;98537.00;;;;16549268;28;20245;-77
2022/09/02 14:18:31;;;;;;;2.50;2.30;;;;;33.00;98543.00;;;;16588902;28;20552;-77
2022/09/02 14:26:37;;;;;;;2.97;1.77;;;;;33.00;98517.00;;;;16558784;28;20232;-77
2022/09/02 14:34:41;;;;;;;2.20;1.60;;;;;33.60;98504.00;;;;16578064;28;20298;-76
2022/09/02 14:42:47;;;;;;;1.80;1.57;;;;;34.80;98494.00;;;;16570587;28;20231;-77
2022/09/02 14:50:50;;;;;;;3.20;2.10;;;;;31.60;98505.00;;;;16587163;28;20231;-76
2022/09/02 14:58:54;;;;;;;4.60;1.87;;;;;33.50;98494.00;;;;16584250;28;20325;-76
2022/09/02 15:06:56;;;;;;;2.83;1.70;;;;;35.00;98504.00;;;;16564867;28;20247;-77
2022/09/02 15:15:01;;;;;;;2.67;2.30;;;;;34.10;98487.00;;;;16530916;28;20233;-77
2022/09/02 15:23:03;;;;;;;3.40;1.70;;;;;35.60;98480.00;;;;16519943;28;20303;-77
2022/09/02 15:31:07;;;;;;;2.80;2.50;;;;;34.20;98479.00;;;;16523009;28;20223;-77
2022/09/02 15:39:10;;;;;;;2.73;1.80;;;;;33.50;98495.00;;;;16547245;28;20239;-76
2022/09/02 15:47:13;;;;;;;2.60;1.73;;;;;34.80;98523.00;;;;16597522;28;20230;-77
2022/09/02 15:55:16;;;;;;;1.80;1.53;;;;;33.60;98524.00;;;;16655814;22;20382;-48
2022/09/02 16:03:20;;;;;;;2.57;2.13;;;;;31.80;98515.00;;;;16648225;28;20230;-48
2022/09/02 16:11:22;;;;;;;2.60;1.90;;;;;30.10;98492.00;;;;16643533;28;20211;-47
2022/09/02 16:19:27;;;;;;;4.43;1.90;;;;;29.30;98489.00;;;;16654167;28;20214;-49
2022/09/02 16:35:51;;;;;;;2.93;2.10;;;;;29.80;98479.00;;;;16647898;28;20230;-48
2022/09/02 16:43:54;;;;;;;2.37;2.00;;;;;27.70;98483.00;;;;16647164;28;20565;-48
2022/09/02 16:51:57;;;;;;;2.40;1.80;;;;;28.10;98492.00;;;;16643090;28;20218;-48
2022/09/02 17:00:00;;;;;;;2.77;2.33;;;;;30.40;98485.00;;;;16624394;28;20215;-49
2022/09/02 17:08:04;;;;;;;3.23;2.60;;;;;29.40;98477.00;;;;16649636;28;20280;-49
2022/09/02 17:16:07;;;;;;;2.53;2.00;;;;;28.30;98478.00;;;;16658660;28;20221;-48
2022/09/02 17:24:12;;;;;;;2.30;2.10;;;;;26.90;98485.00;;;;16645813;28;20241;-48
2022/09/02 17:32:14;;;;;;;2.37;2.17;;;;;27.20;98477.00;;;;16657069;28;20207;-49
2022/09/02 17:48:38;;;;;;;3.63;3.20;;;;;25.20;98491.00;;;;16655625;28;20234;-46
2022/09/02 17:57:10;;;;;;;2.90;2.30;;;;;23.60;98493.00;;;;16645805;28;20234;-48
2022/09/02 18:05:20;;;;;;;2.77;2.10;;;;;22.20;98507.00;;;;16605068;28;20227;-48
2022/09/02 18:13:27;;;;;;;3.03;2.73;;;;;21.70;98506.00;;;;16628768;28;20219;-48
2022/09/02 18:21:46;;;;;;;3.67;2.70;;;;;21.50;98522.00;;;;16642396;28;20199;-46
2022/09/02 18:30:04;;;;;;;5.30;2.70;;;;;21.90;98520.00;;;;16656525;28;20245;-48
2022/09/02 18:38:13;;;;;;;4.70;3.33;;;;;21.40;98524.00;;;;16629892;28;20302;-48
2022/09/02 18:46:18;;;;;;;2.87;2.60;;;;;20.80;98537.00;;;;16638112;28;20405;-48
2022/09/02 18:54:23;;;;;;;3.70;2.77;;;;;20.60;98546.00;;;;16608905;28;20241;-48
2022/09/02 19:02:32;;;;;;;2.23;2.07;;;;;20.50;98550.00;;;;16632592;28;20209;-48
2022/09/02 19:10:35;;;;;;;3.80;2.70;;;;;21.20;98545.00;;;;16651079;28;20222;-48
2022/09/02 19:18:39;;;;;;;3.27;2.70;;;;;20.80;98539.00;;;;16665569;28;20240;-48
2022/09/02 19:26:42;;;;;;;5.67;3.63;;;;;20.60;98542.00;;;;16650094;28;20235;-49
2022/09/02 19:34:51;;;;;;;7.80;3.30;;;;;21.10;98536.00;;;;16658852;28;20227;-48
2022/09/02 19:42:54;;;;;;;3.60;3.30;;;;;21.30;98531.00;;;;16663425;28;20208;-48
2022/09/02 19:51:02;;;;;;;4.50;2.67;;;;;22.10;98527.00;;;;16654635;28;20323;-47
2022/09/02 19:59:05;;;;;;;2.27;2.10;;;;;22.50;98514.00;;;;16648989;28;20211;-48
2022/09/02 20:07:09;;;;;;;1.93;1.77;;;;;22.50;98500.00;;;;16653728;28;20221;-48
2022/09/02 20:15:11;;;;;;;3.07;2.27;;;;;22.40;98489.00;;;;16662203;28;20289;-48
2022/09/02 20:23:16;;;;;;;2.47;2.27;;;;;22.40;98496.00;;;;16649594;28;20663;-48
2022/09/02 20:31:31;;;;;;;2.93;2.00;;;;;22.50;98487.00;;;;16660724;28;20588;-48
2022/09/02 20:39:44;;;;;;;5.33;2.60;;;;;22.50;98486.00;;;;16660244;28;20229;-48
2022/09/02 20:47:59;;;;;;;2.50;1.87;;;;;22.40;98484.00;;;;16647961;28;20231;-48
2022/09/02 20:56:09;;;;;;;2.80;1.93;;;;;22.40;98496.00;;;;16645594;28;20222;-48
2022/09/02 21:04:29;;;;;;;2.00;1.80;;;;;22.40;98496.00;;;;16655172;28;20709;-48
2022/09/02 21:12:40;;;;;;;3.03;1.83;;;;;22.40;98496.00;;;;16643239;28;20294;-48
2022/09/02 21:20:46;;;;;;;2.70;2.03;;;;;22.40;98507.00;;;;16651871;28;20210;-48
2022/09/02 21:28:52;;;;;;;1.90;1.80;;;;;22.30;98497.00;;;;16652196;28;20231;-47
2022/09/02 21:36:57;;;;;;;3.80;2.57;;;;;21.60;98512.00;;;;16657210;28;20244;-48
2022/09/02 21:45:09;;;;;;;4.33;2.30;;;;;19.80;98524.00;;;;16656676;28;20240;-49
2022/09/02 21:53:17;;;;;;;2.50;2.30;;;;;19.70;98527.00;;;;16642309;28;20321;-48
2022/09/02 22:01:33;;;;;;;3.57;2.23;;;;;20.10;98527.00;;;;16654683;28;20560;-48
2022/09/02 22:09:35;;;;;;;2.60;2.40;;;;;19.10;98515.00;;;;16641582;22;20243;-78
2022/09/02 22:17:44;;;;;;;2.53;2.33;;;;;18.60;98525.00;;;;16592590;28;20261;-78
2022/09/02 22:25:47;;;;;;;3.50;2.97;;;;;18.10;98535.00;;;;16645942;28;20226;-77
2022/09/02 22:33:54;;;;;;;3.80;2.63;;;;;18.30;98536.00;;;;16654717;28;20246;-78
2022/09/02 22:42:03;;;;;;;5.50;2.30;;;;;18.20;98513.00;;;;16639616;28;20297;-78
2022/09/02 22:58:48;;;;;;;3.30;2.57;;;;;17.60;98522.00;;;;16603917;28;20285;-78
2022/09/02 23:07:00;;;;;;;3.17;2.63;;;;;17.60;98510.00;;;;16584417;28;20656;-78
2022/09/02 23:15:11;;;;;;;3.93;2.30;;;;;17.70;98499.00;;;;16651559;28;20191;-78
2022/09/02 23:23:23;;;;;;;2.97;2.40;;;;;17.30;98504.00;;;;16653689;28;20230;-77
2022/09/02 23:31:33;;;;;;;3.70;2.53;;;;;17.30;98501.00;;;;16629439;28;20233;-77
2022/09/02 23:39:51;;;;;;;3.57;2.40;;;;;17.30;98495.00;;;;16625243;28;20214;-78
2022/09/02 23:48:05;;;;;;;4.30;2.20;;;;;17.60;98489.00;;;;16609801;28;20254;-78
2022/09/02 23:56:22;;;;;;;3.20;2.90;;;;;17.70;98478.00;;;;16651126;28;20198;-78
